createdAt,value
2023-03-03T00:01:19.621Z,96774.00
2023-03-03T00:03:47.500Z,96765.25
2023-03-03T00:06:16.480Z,96772.19
2023-03-03T00:08:44.252Z,96762.59
2023-03-03T00:11:13.156Z,96773.13
2023-03-03T00:13:47.791Z,96765.22
2023-03-03T00:16:18.721Z,96774.69
2023-03-03T00:18:48.087Z,96769.56
2023-03-03T00:21:29.295Z,96769.56
2023-03-03T00:24:16.714Z,96774.84
2023-03-03T00:26:47.415Z,96775.72
2023-03-03T00:29:35.774Z,96770.72
2023-03-03T00:32:22.244Z,96769.94
2023-03-03T00:34:51.209Z,96778.66
2023-03-03T00:37:30.066Z,96766.56
2023-03-03T00:40:17.288Z,96774.47
2023-03-03T00:42:48.149Z,96770.13
2023-03-03T00:45:28.103Z,96775.41
2023-03-03T00:47:57.233Z,96764.19
2023-03-03T00:50:32.784Z,96772.97
2023-03-03T00:53:07.012Z,96768.91
2023-03-03T00:55:36.129Z,96769.09
2023-03-03T00:58:05.640Z,96775.28
2023-03-03T01:00:41.021Z,96762.38
2023-03-03T01:03:15.103Z,96761.78
2023-03-03T01:05:43.297Z,96765.53
2023-03-03T01:08:11.540Z,96769.81
2023-03-03T01:10:43.506Z,96767.47
2023-03-03T01:13:12.016Z,96766.72
2023-03-03T01:15:41.763Z,96763.41
2023-03-03T01:18:10.967Z,96766.84
2023-03-03T01:20:38.821Z,96761.91
2023-03-03T01:23:07.118Z,96766.44
2023-03-03T01:25:35.099Z,96771.03
2023-03-03T01:28:03.135Z,96773.84
2023-03-03T01:30:31.050Z,96771.16
2023-03-03T01:33:02.019Z,96766.19
2023-03-03T01:35:31.160Z,96768.72
2023-03-03T01:37:59.975Z,96766.28
2023-03-03T01:40:30.748Z,96771.75
2023-03-03T01:43:00.400Z,96766.53
2023-03-03T01:45:30.873Z,96780.66
2023-03-03T01:48:04.529Z,96767.66
2023-03-03T01:50:40.699Z,96773.84
2023-03-03T01:53:16.787Z,96777.16
2023-03-03T01:55:46.151Z,96767.09
2023-03-03T01:58:17.163Z,96765.56
2023-03-03T02:00:50.616Z,96764.88
2023-03-03T02:03:21.783Z,96762.16
2023-03-03T02:05:51.731Z,96755.53
2023-03-03T02:08:25.333Z,96755.44
2023-03-03T02:10:54.854Z,96755.53
2023-03-03T02:13:23.090Z,96753.84
2023-03-03T02:15:51.062Z,96751.19
2023-03-03T02:18:21.725Z,96738.47
2023-03-03T02:20:58.033Z,96743.69
2023-03-03T02:23:32.029Z,96738.47
2023-03-03T02:26:08.295Z,96736.88
2023-03-03T02:28:38.720Z,96741.13
2023-03-03T02:31:13.415Z,96732.59
2023-03-03T02:33:43.868Z,96736.09
2023-03-03T02:36:14.556Z,96741.25
2023-03-03T02:38:47.502Z,96742.41
2023-03-03T02:41:28.524Z,96738.81
2023-03-03T02:44:01.255Z,96738.69
2023-03-03T02:46:33.059Z,96738.16
2023-03-03T02:49:01.834Z,96739.03
2023-03-03T02:51:29.667Z,96733.72
2023-03-03T02:53:57.505Z,96745.16
2023-03-03T02:56:28.891Z,96749.59
2023-03-03T02:58:57.003Z,96742.69
2023-03-03T03:01:25.220Z,96745.00
2023-03-03T03:03:55.418Z,96744.97
2023-03-03T03:06:25.055Z,96751.06
2023-03-03T03:08:52.885Z,96751.63
2023-03-03T03:11:22.164Z,96746.31
2023-03-03T03:13:51.974Z,96749.72
2023-03-03T03:16:20.650Z,96751.34
2023-03-03T03:18:50.312Z,96757.34
2023-03-03T03:21:18.695Z,96753.84
2023-03-03T03:23:47.538Z,96750.97
2023-03-03T03:26:15.545Z,96756.19
2023-03-03T03:28:44.936Z,96755.97
2023-03-03T03:31:14.960Z,96751.69
2023-03-03T03:33:42.809Z,96756.91
2023-03-03T03:36:11.454Z,96755.16
2023-03-03T03:38:39.682Z,96749.91
2023-03-03T03:41:09.105Z,96760.25
2023-03-03T03:43:37.196Z,96753.25
2023-03-03T03:46:05.634Z,96753.28
2023-03-03T03:48:35.818Z,96747.22
2023-03-03T03:51:06.180Z,96743.56
2023-03-03T03:53:35.015Z,96748.78
2023-03-03T03:56:03.156Z,96746.13
2023-03-03T03:58:31.839Z,96762.56
2023-03-03T04:01:05.652Z,96752.06
2023-03-03T04:03:37.295Z,96749.47
2023-03-03T04:06:09.227Z,96748.50
2023-03-03T04:08:37.136Z,96746.69
2023-03-03T04:11:05.381Z,96753.63
2023-03-03T04:13:35.301Z,96754.50
2023-03-03T04:16:06.832Z,96750.06
2023-03-03T04:18:37.012Z,96756.94
2023-03-03T04:21:05.834Z,96748.16
2023-03-03T04:23:34.278Z,96760.22
2023-03-03T04:26:03.208Z,96757.59
2023-03-03T04:28:31.543Z,96751.53
2023-03-03T04:31:00.611Z,96761.09
2023-03-03T04:33:31.142Z,96757.59
2023-03-03T04:36:01.216Z,96762.00
2023-03-03T04:38:29.721Z,96758.31
2023-03-03T04:40:58.289Z,96762.69
2023-03-03T04:43:28.875Z,96763.66
2023-03-03T04:45:57.909Z,96763.34
2023-03-03T04:48:25.947Z,96772.00
2023-03-03T04:50:54.618Z,96758.94
2023-03-03T04:53:24.152Z,96765.00
2023-03-03T04:55:53.704Z,96766.69
2023-03-03T04:58:23.388Z,96764.91
2023-03-03T05:00:56.962Z,96765.84
2023-03-03T05:03:27.203Z,96776.00
2023-03-03T05:05:55.397Z,96780.38
2023-03-03T05:08:25.284Z,96786.28
2023-03-03T05:10:55.068Z,96787.25
2023-03-03T05:13:23.431Z,96785.56
2023-03-03T05:15:52.296Z,96784.59
2023-03-03T05:18:20.899Z,96787.38
2023-03-03T05:20:49.066Z,96784.59
2023-03-03T05:23:16.964Z,96785.44
2023-03-03T05:25:46.563Z,96784.59
2023-03-03T05:28:15.123Z,96785.31
2023-03-03T05:30:43.045Z,96784.44
2023-03-03T05:33:14.374Z,96785.31
2023-03-03T05:35:42.350Z,96781.00
2023-03-03T05:38:10.275Z,96784.38
2023-03-03T05:40:38.900Z,96782.69
2023-03-03T05:43:08.343Z,96781.78
2023-03-03T05:45:36.349Z,96789.59
2023-03-03T05:48:04.902Z,96791.50
2023-03-03T05:50:33.130Z,96787.88
2023-03-03T05:53:00.982Z,96798.28
2023-03-03T05:55:29.303Z,96803.63
2023-03-03T05:57:58.245Z,96802.66
2023-03-03T06:00:27.911Z,96806.94
2023-03-03T06:02:56.196Z,96806.09
2023-03-03T06:05:24.507Z,96811.16
2023-03-03T06:07:52.765Z,96811.97
2023-03-03T06:10:21.672Z,96809.34
2023-03-03T06:12:55.089Z,96808.47
2023-03-03T06:15:23.446Z,96811.91
2023-03-03T06:17:53.066Z,96811.06
2023-03-03T06:20:21.188Z,96808.56
2023-03-03T06:22:49.616Z,96810.16
2023-03-03T06:25:18.314Z,96807.44
2023-03-03T06:27:46.108Z,96813.56
2023-03-03T06:30:14.772Z,96828.25
2023-03-03T06:32:42.606Z,96835.16
2023-03-03T06:35:12.227Z,96829.03
2023-03-03T06:37:40.706Z,96832.44
2023-03-03T06:40:10.611Z,96835.81
2023-03-03T06:42:38.528Z,96835.66
2023-03-03T06:45:07.148Z,96845.19
2023-03-03T06:47:35.065Z,96845.22
2023-03-03T06:50:02.903Z,96855.38
2023-03-03T06:52:32.080Z,96851.06
2023-03-03T06:55:03.179Z,96846.69
2023-03-03T06:57:32.728Z,96853.66
2023-03-03T07:00:15.427Z,96853.47
2023-03-03T07:02:43.305Z,96855.97
2023-03-03T07:05:16.523Z,96859.41
2023-03-03T07:07:46.475Z,96859.41
2023-03-03T07:10:23.215Z,96861.97
2023-03-03T07:12:51.113Z,96863.59
2023-03-03T07:15:22.692Z,96866.03
2023-03-03T07:17:53.601Z,96865.97
2023-03-03T07:20:23.122Z,96865.72
2023-03-03T07:22:53.600Z,96871.72
2023-03-03T07:25:28.998Z,96870.53
2023-03-03T07:28:01.869Z,96876.53
2023-03-03T07:30:31.212Z,96881.44
2023-03-03T07:32:59.801Z,96881.56
2023-03-03T07:35:39.102Z,96875.38
2023-03-03T07:38:26.918Z,96876.84
2023-03-03T07:40:57.898Z,96877.38
2023-03-03T07:43:32.126Z,96880.75
2023-03-03T07:46:05.863Z,96885.00
2023-03-03T07:48:37.932Z,96883.84
2023-03-03T07:51:12.838Z,96875.84
2023-03-03T07:53:42.384Z,96878.06
2023-03-03T07:56:27.852Z,96876.41
2023-03-03T07:58:57.118Z,96882.25
2023-03-03T08:01:42.691Z,96884.53
2023-03-03T08:04:18.023Z,96887.94
2023-03-03T08:07:04.189Z,96896.38
2023-03-03T08:09:45.212Z,96895.25
2023-03-03T08:12:41.800Z,96895.25
2023-03-03T08:15:24.754Z,96891.44
2023-03-03T08:17:54.858Z,96890.50
2023-03-03T08:20:59.555Z,96891.81
2023-03-03T08:23:28.109Z,96887.25
2023-03-03T08:25:59.985Z,96895.72
2023-03-03T08:28:28.430Z,96891.94
2023-03-03T08:31:12.518Z,96893.38
2023-03-03T08:33:42.959Z,96892.47
2023-03-03T08:36:12.945Z,96890.31
2023-03-03T08:38:41.536Z,96896.31
2023-03-03T08:41:10.814Z,96892.00
2023-03-03T08:43:38.664Z,96894.41
2023-03-03T08:46:10.191Z,96890.47
2023-03-03T08:48:38.565Z,96899.03
2023-03-03T08:51:06.970Z,96889.78
2023-03-03T08:53:36.608Z,96905.41
2023-03-03T08:56:04.718Z,96898.56
2023-03-03T08:58:35.952Z,96894.16
2023-03-03T09:01:05.744Z,96897.41
2023-03-03T09:03:33.778Z,96897.84
2023-03-03T09:06:01.594Z,96909.22
2023-03-03T09:08:29.397Z,96906.47
2023-03-03T09:10:57.263Z,96907.59
2023-03-03T09:13:25.063Z,96908.16
2023-03-03T09:15:54.287Z,96913.88
2023-03-03T09:18:28.357Z,96911.97
2023-03-03T09:25:23.417Z,96923.72
2023-03-03T09:27:54.133Z,96920.00
2023-03-03T09:38:48.421Z,96929.56
2023-03-03T09:41:47.709Z,96923.34
2023-03-03T09:44:29.076Z,96929.50
2023-03-03T09:47:12.406Z,96926.66
2023-03-03T09:49:51.227Z,96925.66
2023-03-03T09:52:34.758Z,96930.03
2023-03-03T09:55:29.356Z,96924.78
2023-03-03T09:58:14.481Z,96929.59
2023-03-03T10:00:52.865Z,96925.16
2023-03-03T10:03:48.059Z,96914.34
2023-03-03T10:06:24.801Z,96922.66
2023-03-03T10:09:03.458Z,96922.38
2023-03-03T10:11:39.842Z,96924.66
2023-03-03T10:14:27.959Z,96927.38
2023-03-03T10:17:10.686Z,96923.53
2023-03-03T10:19:42.461Z,96920.16
2023-03-03T10:22:21.032Z,96926.78
2023-03-03T10:25:04.860Z,96925.69
2023-03-03T10:27:58.026Z,96917.47
2023-03-03T10:30:42.721Z,96926.31
2023-03-03T10:33:27.017Z,96927.53
2023-03-03T10:36:11.065Z,96920.47
2023-03-03T10:38:47.853Z,96925.94
2023-03-03T10:41:40.889Z,96924.16
2023-03-03T10:44:25.702Z,96920.22
2023-03-03T10:47:12.820Z,96927.75
2023-03-03T10:49:53.240Z,96926.59
2023-03-03T10:52:32.463Z,96935.75
2023-03-03T10:55:33.005Z,96921.53
2023-03-03T10:58:22.070Z,96918.41
2023-03-03T11:00:58.443Z,96916.56
2023-03-03T11:03:49.883Z,96919.63
2023-03-03T11:06:23.195Z,96914.19
2023-03-03T11:08:56.670Z,96916.63
2023-03-03T11:11:35.313Z,96929.75
2023-03-03T11:14:10.682Z,96919.19
2023-03-03T11:16:51.385Z,96915.53
2023-03-03T11:19:36.791Z,96927.38
2023-03-03T11:22:16.254Z,96924.91
2023-03-03T11:25:01.295Z,96926.44
2023-03-03T11:28:00.420Z,96919.16
2023-03-03T11:30:52.122Z,96924.66
2023-03-03T11:33:27.296Z,96924.22
2023-03-03T11:36:11.987Z,96932.50
2023-03-03T11:38:58.165Z,96928.81
2023-03-03T11:41:32.671Z,96925.75
2023-03-03T11:44:09.880Z,96920.56
2023-03-03T11:46:43.751Z,96916.84
2023-03-03T11:49:18.474Z,96920.78
2023-03-03T11:51:55.014Z,96926.22
2023-03-03T11:54:28.843Z,96927.34
2023-03-03T11:57:10.119Z,96912.16
2023-03-03T11:59:49.977Z,96907.09
2023-03-03T12:02:48.093Z,96896.41
2023-03-03T12:05:30.601Z,96894.34
2023-03-03T12:08:05.950Z,96897.94
2023-03-03T12:10:42.232Z,96894.94
2023-03-03T12:13:22.001Z,96888.75
2023-03-03T12:15:56.494Z,96893.25
2023-03-03T12:18:46.247Z,96886.91
2023-03-03T12:21:28.054Z,96892.72
2023-03-03T12:24:26.996Z,96894.59
2023-03-03T12:27:05.619Z,96893.66
2023-03-03T12:29:46.773Z,96895.53
2023-03-03T12:32:24.231Z,96888.22
2023-03-03T12:34:59.642Z,96890.38
2023-03-03T12:37:49.991Z,96896.38
2023-03-03T12:40:21.054Z,96881.91
2023-03-03T12:43:05.741Z,96878.81
2023-03-03T12:45:44.870Z,96880.81
2023-03-03T12:48:18.475Z,96893.84
2023-03-03T12:50:59.126Z,96885.38
2023-03-03T12:53:41.457Z,96893.72
2023-03-03T12:56:11.389Z,96894.28
2023-03-03T12:58:48.128Z,96886.69
2023-03-03T13:01:30.275Z,96886.78
2023-03-03T13:04:06.514Z,96896.00
2023-03-03T13:06:40.354Z,96889.22
2023-03-03T13:09:23.344Z,96889.22
2023-03-03T13:12:01.357Z,96889.88
2023-03-03T13:14:36.071Z,96886.59
2023-03-03T13:17:16.675Z,96886.69
2023-03-03T13:19:50.530Z,96880.94
2023-03-03T13:22:28.928Z,96875.53
2023-03-03T13:25:07.786Z,96884.63
2023-03-03T13:27:41.247Z,96885.38
2023-03-03T13:30:17.901Z,96882.69
2023-03-03T13:32:51.448Z,96875.34
2023-03-03T13:35:28.813Z,96873.22
2023-03-03T13:37:58.810Z,96871.34
2023-03-03T13:40:34.935Z,96875.84
2023-03-03T13:43:09.785Z,96877.31
2023-03-03T13:45:43.417Z,96867.75
2023-03-03T13:48:25.837Z,96866.66
2023-03-03T13:50:58.408Z,96864.09
2023-03-03T13:53:38.105Z,96857.81
2023-03-03T13:56:23.032Z,96865.63
2023-03-03T13:59:01.993Z,96866.53
2023-03-03T14:01:43.420Z,96866.44
2023-03-03T14:04:21.107Z,96858.38
2023-03-03T14:06:57.431Z,96851.44
2023-03-03T14:09:56.258Z,96857.66
2023-03-03T14:12:30.489Z,96851.25
2023-03-03T14:15:06.401Z,96851.38
2023-03-03T14:17:45.550Z,96855.19
2023-03-03T14:20:19.984Z,96862.16
2023-03-03T14:22:54.242Z,96857.94
2023-03-03T14:25:22.101Z,96855.09
2023-03-03T14:28:05.493Z,96853.53
2023-03-03T14:30:37.669Z,96847.44
2023-03-03T14:33:20.377Z,96846.47
2023-03-03T14:36:02.313Z,96848.47
2023-03-03T14:38:44.035Z,96844.59
2023-03-03T14:41:18.474Z,96843.75
2023-03-03T14:43:58.768Z,96849.56
2023-03-03T14:46:34.786Z,96844.53
2023-03-03T14:49:05.037Z,96845.91
2023-03-03T14:51:41.629Z,96849.66
2023-03-03T14:54:15.854Z,96847.03
2023-03-03T14:56:58.669Z,96847.22
2023-03-03T14:59:29.210Z,96848.75
2023-03-03T15:02:26.339Z,96849.56
2023-03-03T15:05:14.367Z,96845.34
2023-03-03T15:07:42.269Z,96843.75
2023-03-03T15:10:13.452Z,96839.53
2023-03-03T15:12:42.651Z,96842.94
2023-03-03T15:15:20.663Z,96845.63
2023-03-03T15:17:58.587Z,96836.81
2023-03-03T15:20:43.131Z,96838.50
2023-03-03T15:23:37.130Z,96833.25
2023-03-03T15:26:11.394Z,96839.63
2023-03-03T15:28:55.040Z,96829.97
2023-03-03T15:31:35.007Z,96832.50
2023-03-03T15:34:23.892Z,96839.63
2023-03-03T15:36:58.861Z,96834.38
2023-03-03T15:39:37.082Z,96833.53
2023-03-03T15:42:11.792Z,96824.97
2023-03-03T15:44:52.840Z,96828.38
2023-03-03T15:47:37.535Z,96830.22
2023-03-03T15:50:22.031Z,96842.44
2023-03-03T15:53:05.257Z,96845.25
2023-03-03T15:56:00.458Z,96842.81
2023-03-03T15:58:55.054Z,96851.44
2023-03-03T16:01:28.447Z,96852.28
2023-03-03T16:04:00.593Z,96855.03
2023-03-03T16:06:43.342Z,96858.66
2023-03-03T16:09:23.353Z,96850.22
2023-03-03T16:11:58.988Z,96852.75
2023-03-03T16:14:45.156Z,96849.38
2023-03-03T16:17:24.172Z,96862.69
2023-03-03T16:20:03.507Z,96858.47
2023-03-03T16:23:02.381Z,96861.25
2023-03-03T16:25:41.725Z,96861.38
2023-03-03T16:28:16.202Z,96866.63
2023-03-03T16:30:52.796Z,96866.72
2023-03-03T16:33:25.121Z,96859.94
2023-03-03T16:36:03.940Z,96869.69
2023-03-03T16:38:36.743Z,96874.09
2023-03-03T16:41:08.078Z,96876.91
2023-03-03T16:43:47.278Z,96877.94
2023-03-03T16:46:27.487Z,96870.34
2023-03-03T16:49:06.066Z,96880.09
2023-03-03T16:51:46.243Z,96888.03
2023-03-03T16:54:21.900Z,96888.03
2023-03-03T16:56:56.434Z,96883.16
2023-03-03T16:59:40.976Z,96897.47
2023-03-03T17:02:22.511Z,96899.19
2023-03-03T17:04:59.237Z,96898.47
2023-03-03T17:07:43.575Z,96902.28
2023-03-03T17:10:33.847Z,96906.78
2023-03-03T17:13:24.992Z,96905.25
2023-03-03T17:16:06.107Z,96911.59
2023-03-03T17:18:45.453Z,96906.53
2023-03-03T17:21:26.006Z,96911.66
2023-03-03T17:24:18.764Z,96913.94
2023-03-03T17:27:09.776Z,96919.13
2023-03-03T17:29:51.793Z,96919.38
2023-03-03T17:32:38.410Z,96927.97
2023-03-03T17:35:22.950Z,96927.63
2023-03-03T17:37:58.928Z,96930.41
2023-03-03T17:40:42.770Z,96932.84
2023-03-03T17:43:17.286Z,96934.84
2023-03-03T17:45:48.632Z,96933.63
2023-03-03T17:48:40.105Z,96938.50
2023-03-03T17:51:33.326Z,96952.84
2023-03-03T17:54:22.837Z,96954.94
2023-03-03T17:57:04.817Z,96958.03
2023-03-03T17:59:47.412Z,96968.59
2023-03-03T18:02:39.812Z,96971.72
2023-03-03T18:05:38.651Z,96974.66
2023-03-03T18:08:20.587Z,96968.34
2023-03-03T18:11:09.107Z,96978.69
2023-03-03T18:14:07.055Z,96973.50
2023-03-03T18:16:50.909Z,96979.59
2023-03-03T18:19:36.472Z,96978.97
2023-03-03T18:22:08.091Z,96991.13
2023-03-03T18:24:40.703Z,96988.84
2023-03-03T18:27:30.941Z,96987.72
2023-03-03T18:30:29.390Z,96983.28
2023-03-03T18:33:15.096Z,96994.97
2023-03-03T18:35:45.289Z,96996.97
2023-03-03T18:38:39.292Z,96999.09
2023-03-03T18:41:12.564Z,96996.78
2023-03-03T18:43:53.816Z,96998.19
2023-03-03T18:46:52.946Z,96995.41
2023-03-03T18:49:52.585Z,97002.44
2023-03-03T18:52:29.750Z,97008.94
2023-03-03T18:55:06.072Z,97010.16
2023-03-03T18:57:33.926Z,97009.84
2023-03-03T19:00:15.965Z,97013.75
2023-03-03T19:02:53.560Z,97019.25
2023-03-03T19:05:25.664Z,97011.91
2023-03-03T19:07:59.093Z,97017.97
2023-03-03T19:10:58.828Z,97027.06
2023-03-03T19:13:49.558Z,97022.00
2023-03-03T19:16:36.759Z,97031.06
2023-03-03T19:19:12.859Z,97022.06
2023-03-03T19:21:42.770Z,97027.19
2023-03-03T19:24:29.536Z,97029.22
2023-03-03T19:27:12.843Z,97029.84
2023-03-03T19:30:02.240Z,97038.09
2023-03-03T19:32:47.273Z,97036.41
2023-03-03T19:35:28.181Z,97041.31
2023-03-03T19:38:04.590Z,97034.94
2023-03-03T19:40:39.082Z,97038.72
2023-03-03T19:43:23.170Z,97032.06
2023-03-03T19:46:04.955Z,97043.59
2023-03-03T19:48:41.242Z,97044.75
2023-03-03T19:51:22.647Z,97038.06
2023-03-03T19:53:55.787Z,97048.00
2023-03-03T19:56:34.327Z,97038.59
2023-03-03T19:59:17.680Z,97037.28
2023-03-03T20:01:59.434Z,97034.91
2023-03-03T20:04:41.334Z,97047.97
2023-03-03T20:07:23.877Z,97049.06
2023-03-03T20:09:59.571Z,97050.09
2023-03-03T20:12:39.110Z,97058.25
2023-03-03T20:15:15.148Z,97056.78
2023-03-03T20:17:59.911Z,97052.47
2023-03-03T20:20:42.288Z,97060.38
2023-03-03T20:23:22.576Z,97059.75
2023-03-03T20:25:55.525Z,97065.09
2023-03-03T20:28:58.604Z,97060.91
2023-03-03T20:31:35.627Z,97065.47
2023-03-03T20:34:12.106Z,97065.69
2023-03-03T20:36:52.751Z,97065.06
2023-03-03T20:39:36.268Z,97069.63
2023-03-03T20:42:14.023Z,97072.28
2023-03-03T20:44:54.644Z,97072.97
2023-03-03T20:47:34.190Z,97074.09
2023-03-03T20:50:15.497Z,97075.13
2023-03-03T20:52:57.526Z,97070.22
2023-03-03T20:55:39.752Z,97072.97
2023-03-03T20:58:14.812Z,97070.38
2023-03-03T21:00:51.996Z,97073.91
2023-03-03T21:03:28.352Z,97070.59
2023-03-03T21:05:59.015Z,97069.06
2023-03-03T21:08:49.799Z,97068.38
2023-03-03T21:11:20.744Z,97070.09
2023-03-03T21:13:51.723Z,97072.69
2023-03-03T21:16:35.605Z,97073.59
2023-03-03T21:19:05.437Z,97072.09
2023-03-03T21:21:35.001Z,97072.91
2023-03-03T21:24:03.725Z,97072.06
2023-03-03T21:26:53.144Z,97074.66
2023-03-03T21:29:24.511Z,97084.28
2023-03-03T21:31:54.876Z,97080.00
2023-03-03T21:34:29.371Z,97086.22
2023-03-03T21:36:58.612Z,97076.81
2023-03-03T21:39:31.512Z,97085.63
2023-03-03T21:42:03.724Z,97082.34
2023-03-03T21:44:35.067Z,97082.34
2023-03-03T21:47:03.396Z,97084.13
2023-03-03T21:49:31.401Z,97085.09
2023-03-03T21:51:59.625Z,97084.25
2023-03-03T21:54:27.642Z,97083.53
2023-03-03T21:56:55.440Z,97081.94
2023-03-03T21:59:24.591Z,97087.06
2023-03-03T22:01:52.462Z,97081.09
2023-03-03T22:04:20.292Z,97081.28
2023-03-03T22:06:49.089Z,97081.31
2023-03-03T22:09:16.950Z,97081.47
2023-03-03T22:11:45.289Z,97082.34
2023-03-03T22:14:13.124Z,97074.78
2023-03-03T22:16:42.762Z,97077.19
2023-03-03T22:19:11.092Z,97074.78
2023-03-03T22:21:40.418Z,97080.09
2023-03-03T22:24:09.277Z,97075.75
2023-03-03T22:26:37.239Z,97087.13
2023-03-03T22:29:05.664Z,97081.88
2023-03-03T22:31:33.777Z,97076.84
2023-03-03T22:34:02.980Z,97069.22
2023-03-03T22:36:30.826Z,97084.13
2023-03-03T22:38:58.709Z,97079.03
2023-03-03T22:41:26.581Z,97075.47
2023-03-03T22:43:54.460Z,97074.69
2023-03-03T22:46:22.401Z,97085.19
2023-03-03T22:48:51.203Z,97073.91
2023-03-03T22:51:22.164Z,97082.78
2023-03-03T22:53:50.187Z,97082.94
2023-03-03T22:56:18.043Z,97085.53
2023-03-03T22:58:46.236Z,97089.09
2023-03-03T23:01:14.200Z,97088.13
2023-03-03T23:03:42.071Z,97091.69
2023-03-03T23:06:09.927Z,97088.25
2023-03-03T23:08:39.220Z,97082.94
2023-03-03T23:11:06.988Z,97085.72
2023-03-03T23:13:35.261Z,97090.16
2023-03-03T23:16:03.323Z,97090.16
2023-03-03T23:18:31.215Z,97085.81
2023-03-03T23:20:59.093Z,97088.53
2023-03-03T23:23:27.568Z,97090.22
2023-03-03T23:25:57.152Z,97090.19
2023-03-03T23:28:27.148Z,97089.50
2023-03-03T23:30:56.023Z,97089.66
2023-03-03T23:33:24.070Z,97081.94
2023-03-03T23:35:52.899Z,97087.28
2023-03-03T23:38:21.096Z,97088.06
2023-03-03T23:40:49.104Z,97085.56
2023-03-03T23:43:18.315Z,97087.44
2023-03-03T23:45:46.804Z,97091.84
2023-03-03T23:48:14.799Z,97091.91
2023-03-03T23:50:42.594Z,97097.16
2023-03-03T23:53:10.452Z,97093.72
2023-03-03T23:55:38.278Z,97100.63
2023-03-03T23:58:07.569Z,97096.47
